createdAt,value
2023-05-25T08:28:48.727Z,74.13
2023-05-25T08:33:52.240Z,72.45
2023-05-25T08:38:55.645Z,73.80
2023-05-25T08:44:06.092Z,75.78
2023-05-25T08:49:10.925Z,75.96
2023-05-25T08:54:14.908Z,74.51
2023-05-25T08:59:32.012Z,68.82
2023-05-25T09:04:35.801Z,68.76
2023-05-25T09:09:40.193Z,67.80
2023-05-25T09:14:47.950Z,66.35
2023-05-25T09:19:51.932Z,64.28
2023-05-25T09:24:55.609Z,66.75
2023-05-25T09:30:01.856Z,67.45
2023-05-25T09:35:10.583Z,66.03
2023-05-25T09:40:15.441Z,66.06
2023-05-25T09:45:24.406Z,65.56
2023-05-25T09:50:30.762Z,69.16
2023-05-25T09:55:51.574Z,68.44
2023-05-25T10:00:58.481Z,68.43
2023-05-25T10:06:02.529Z,69.90
2023-05-25T10:11:07.001Z,67.30
2023-05-25T10:16:17.628Z,67.47
2023-05-25T10:21:23.856Z,69.65
2023-05-25T10:26:28.911Z,70.02
2023-05-25T10:31:37.589Z,66.10
2023-05-25T10:36:42.001Z,71.48
2023-05-25T10:41:45.481Z,69.93
2023-05-25T10:46:50.680Z,69.25
2023-05-25T10:51:59.429Z,68.24
2023-05-25T10:57:09.759Z,67.04
2023-05-25T11:02:16.421Z,68.10
2023-05-25T11:07:22.831Z,69.93
2023-05-25T11:12:27.617Z,68.77
2023-05-25T11:17:36.436Z,67.05
2023-05-25T11:22:40.391Z,68.04
2023-05-25T11:27:47.376Z,69.36
2023-05-25T11:32:52.297Z,69.37
2023-05-25T11:37:55.685Z,70.36
2023-05-25T11:43:00.832Z,73.72
2023-05-25T11:48:14.114Z,71.42
2023-05-25T11:53:19.675Z,73.01
2023-05-25T11:58:26.684Z,72.83
2023-05-25T12:03:32.861Z,73.12
2023-05-25T12:08:38.687Z,76.30
2023-05-25T12:13:44.383Z,77.19
2023-05-25T12:18:50.812Z,78.68
2023-05-25T12:23:54.811Z,79.63
2023-05-25T12:29:03.046Z,78.64
2023-05-25T12:34:08.949Z,80.26
2023-05-25T12:39:13.532Z,79.91
2023-05-25T12:44:17.712Z,81.85
2023-05-25T12:49:29.716Z,80.44
2023-05-25T12:54:41.043Z,78.48
2023-05-25T12:59:45.127Z,77.22
2023-05-25T13:04:49.947Z,74.57
2023-05-25T13:09:54.034Z,74.61
2023-05-25T13:14:57.599Z,75.03
2023-05-25T13:20:02.440Z,77.30
2023-05-25T13:25:09.295Z,78.39
2023-05-25T13:30:13.263Z,78.68
2023-05-25T13:35:23.884Z,78.47
2023-05-25T13:40:27.716Z,80.89
2023-05-25T13:45:31.486Z,77.75
2023-05-25T13:50:37.062Z,79.29
2023-05-25T13:55:40.912Z,73.52
2023-05-25T14:00:44.619Z,71.51
2023-05-25T14:05:49.972Z,74.06
2023-05-25T14:10:53.531Z,74.07
2023-05-25T14:15:57.173Z,73.40
2023-05-25T14:21:02.231Z,70.81
2023-05-25T14:26:05.821Z,69.19
2023-05-25T14:31:09.318Z,68.96
2023-05-25T14:36:14.283Z,71.27
2023-05-25T14:41:17.781Z,73.37
2023-05-25T14:46:23.478Z,75.05
2023-05-25T14:51:28.810Z,74.74
2023-05-25T14:56:32.648Z,76.16
2023-05-25T15:01:36.179Z,76.26
2023-05-25T15:06:42.319Z,77.25
2023-05-25T15:11:49.426Z,76.45
2023-05-25T15:16:52.820Z,77.00
2023-05-25T15:21:57.703Z,77.13
2023-05-25T15:27:04.072Z,77.12
2023-05-25T15:32:19.128Z,77.04
2023-05-25T15:37:24.481Z,77.42
2023-05-25T15:42:33.989Z,76.07
2023-05-25T15:47:44.287Z,74.65
2023-05-25T15:52:51.778Z,75.71
2023-05-25T15:57:57.175Z,73.38
2023-05-25T16:03:06.377Z,73.68
2023-05-25T16:08:31.624Z,73.51
2023-05-25T16:13:35.099Z,72.54
2023-05-25T16:21:04.024Z,71.74
2023-05-25T16:24:10.206Z,74.25
2023-05-25T16:29:13.882Z,74.54
2023-05-25T16:34:17.565Z,76.26
2023-05-25T16:39:23.686Z,77.39
2023-05-25T16:44:27.205Z,79.16
2023-05-25T16:49:30.877Z,78.69
2023-05-25T16:54:35.819Z,80.48
2023-05-25T16:59:39.786Z,80.54
2023-05-25T17:04:43.238Z,79.90
2023-05-25T17:09:48.107Z,78.80
2023-05-25T17:14:55.492Z,78.50
2023-05-25T17:20:21.878Z,79.55
2023-05-25T17:25:24.618Z,80.57
2023-05-25T17:30:30.941Z,81.23
2023-05-25T17:35:34.443Z,81.57
2023-05-25T17:40:39.399Z,81.80
2023-05-25T17:45:43.561Z,82.88
2023-05-25T17:50:50.332Z,82.53
2023-05-25T17:55:55.205Z,83.17
2023-05-25T18:00:58.949Z,83.63
2023-05-25T18:06:02.675Z,84.23
2023-05-25T18:11:07.784Z,85.78
2023-05-25T18:16:15.751Z,86.99
2023-05-25T18:21:24.524Z,88.71
2023-05-25T18:26:31.819Z,89.31
2023-05-25T18:31:35.325Z,90.55
2023-05-25T18:36:39.056Z,91.62
2023-05-25T18:41:44.072Z,91.92
2023-05-25T18:46:50.202Z,92.61
2023-05-25T18:51:53.719Z,93.88
2023-05-25T18:56:58.773Z,95.92
2023-05-25T19:02:02.572Z,97.31
2023-05-25T19:07:08.876Z,99.58
2023-05-25T19:12:15.376Z,100.00
2023-05-25T19:17:28.079Z,100.00
2023-05-25T19:22:34.815Z,100.00
2023-05-25T19:27:40.047Z,100.00
2023-05-25T19:32:43.935Z,100.00
2023-05-25T19:37:47.693Z,100.00
2023-05-25T19:42:53.368Z,100.00
2023-05-25T19:48:08.071Z,100.00
2023-05-25T19:53:12.191Z,100.00
2023-05-25T19:58:17.450Z,100.00
2023-05-25T20:03:21.956Z,100.00
2023-05-25T20:08:28.574Z,100.00
2023-05-25T20:13:33.934Z,100.00
2023-05-25T20:18:37.833Z,100.00
2023-05-25T20:23:41.301Z,100.00
2023-05-25T20:28:49.078Z,100.00
2023-05-25T20:33:55.946Z,100.00
2023-05-25T20:39:00.447Z,100.00
2023-05-25T20:44:06.631Z,100.00
2023-05-25T20:49:11.217Z,100.00
2023-05-25T20:54:15.424Z,100.00
2023-05-25T20:59:23.577Z,100.00
2023-05-25T21:04:31.645Z,100.00
2023-05-25T21:09:36.006Z,100.00
2023-05-25T21:14:41.076Z,100.00
2023-05-25T21:19:44.646Z,100.00
2023-05-25T21:24:50.580Z,100.00
